Mesquite, Nevada Weather observations

Data are for observation ending at time listed.
 Day   Time    Ave.   Ave.  Ave.  Vector   Max.   Stn.    Total    Solar   Ave.  
  of    of     Air    Rel.  Wind   Wind    Wind   Baro.  Precip.   Rad.    Soil  
Year   Day     Temp.  Hum.  Speed  Dir.    Gust   Pres.                    Temp. 
2019   (PST)    F      %     mph   deg.    mph     mb.     in.     W/m2     F   
------------------------------------------------------------------------------
 170    5:40   77.5    29    0.6    62      2.5   945.0    0.00     142    90.8
 170    5:50   79.3    29    0.2   303      1.9   945.1    0.00     167    90.7
 170    6:00   79.7    28    0.6    98      2.6   945.2    0.00     193    90.6
 170    6:10   80.0    28    0.7   144      2.9   945.3    0.00     219    90.4
 170    6:20   80.3    27    0.4   133      1.9   945.3    0.00     246    90.3
 170    6:30   81.8    26    0.4   208      1.7   945.3    0.00     273    90.3
 170    6:40   81.4    27    0.4   219      1.7   945.4    0.00     299    90.2
 170    6:50   81.8    26    0.5   219      2.3   945.4    0.00     326    90.1
 170    7:00   82.7    25    1.0   222      2.8   945.5    0.00     354    90.0
 170    7:10   83.3    24    0.6   258      2.3   945.5    0.00     380    89.9
 170    7:20   84.2    24    0.7   223      2.9   945.4    0.00     406    89.9
 170    7:30   85.8    23    1.1   220      3.1   945.4    0.00     431    89.9
 170    7:40   86.4    22    1.1   232      2.6   945.4    0.00     456    89.9
 170    7:50   87.6    22    0.7   234      2.6   945.4    0.00     481    89.8
 170    8:00   89.2    21    0.9   204      2.6   945.4    0.00     504    89.8
 170    8:10   90.7    20    0.8   227      3.3   945.3    0.00     526    89.8
 170    8:20   90.6    20    1.1   218      3.4   945.2    0.00     546    89.7
 170    8:30   91.9    18    1.3   226      2.8   945.2    0.00     566    89.7
 170    8:40   92.8    14    1.3   247      3.5   945.1    0.00     585    89.7
 170    8:50   94.5    13    1.9   213      3.4   945.0    0.00     602    89.7
 170    9:00   95.1    13    1.4   216      4.8   944.9    0.00     618    89.7
 170    9:10   95.6    13    2.3   234      5.8   944.8    0.00     635    89.7
 170    9:20   95.0    13    2.4   258      6.6   944.8    0.00     651    89.9
 170    9:30   95.3    12    3.3   231      5.8   944.8    0.00     666    90.1
 170    9:40   96.2    12    2.8   268      8.5   944.6    0.00     681    90.5
 170    9:50   95.5    12    4.1   253      9.6   944.6    0.00     694    90.8
 170   10:00   96.5    12    3.5   255      8.8   944.5    0.00     704    91.2
 170   10:10   97.4    12    4.4   232      8.4   944.4    0.00     714    91.7
 170   10:20   97.2    12    4.4   250      7.8   944.3    0.00     726    92.1
 170   10:30   97.6    12    4.6   264      9.7   944.2    0.00     734    92.6
 170   10:40   97.6    11    4.5   260      8.8   944.0    0.00     742    93.1
 170   10:50   98.1    11    2.3   259      7.2   944.0    0.00     746    93.6
 170   11:00   99.0    10    3.1   225      6.9   943.7    0.00     748    94.1
 170   11:10   99.9    10    2.1   234      5.3   943.5    0.00     750    94.6
 170   11:20  100.3    10    6.7   254     13.7   943.4    0.00     754    95.0
 170   11:30  100.4    10    7.1   242     16.9   943.3    0.00     757    95.5
 170   11:40  100.9    10    7.4   242     14.5   943.2    0.00     755    96.0
 170   11:50  101.0    10    9.3   243     19.1   943.1    0.00     756    96.5
 170   12:00  101.1    10    8.5   254     18.3   942.8    0.00     755    97.0
 170   12:10  101.1    10    8.8   249     18.5   942.6    0.00     754    97.4
 170   12:20  101.2    10    9.9   246     19.4   942.4    0.00     749    97.8
 170   12:30  100.9    10   11.0   253     18.3   942.2    0.00     747    98.2
 170   12:40  101.3    10   10.7   249     19.5   942.0    0.00     742    98.6
 170   12:50  102.0    10    8.2   248     17.4   941.8    0.00     734    99.0
 170   13:00  102.5    10    8.4   233     15.6   941.7    0.00     725    99.4
 170   13:10  102.4    10   10.4   247     17.0   941.5    0.00     717    99.7
 170   13:20  102.8    10    9.5   244     17.2   941.3    0.00     706    100.0
 170   13:30  103.4    10    8.1   244     15.1   941.1    0.00     693    100.3
 170   13:40  103.4    10    7.7   242     14.7   941.0    0.00     679    100.6
 170   13:50  103.2    10   10.0   242     18.3   940.9    0.00     666    100.9
 170   14:00  103.3    10    9.4   247     17.2   940.9    0.00     652    101.2
 170   14:10  103.5    10    8.6   247     16.2   940.7    0.00     635    101.4
 170   14:20  103.7    10    7.5   249     14.8   940.6    0.00     619    101.7
 170   14:30  104.1    10    7.2   222     14.1   940.4    0.00     598    101.9
 170   14:40  104.2    10    7.6   254     20.0   940.4    0.00     579    102.2
 170   14:50  104.6     9    6.2   224     14.3   940.4    0.00     559    102.4
 170   15:00  104.3     9    6.8   242     17.4   940.0    0.00     541    102.6
 170   15:10  104.1     9    7.4   257     14.0   939.8    0.00     517    102.8
 170   15:20  104.8     9    5.2   222     12.9   939.8    0.00     492    103.0
 170   15:30  105.5     9    4.9   216     13.4   939.5    0.00     469    103.1
 170   15:40  105.7     9    4.6   223     13.2   939.2    0.00     445    103.2
 170   15:50  103.9     9    5.6   250     12.3   939.1    0.00     422    103.4
 170   16:00  105.1     9    4.8   227     11.2   938.7    0.00     398    103.5
 170   16:10  104.5     9    4.9   250     10.2   938.4    0.00     372    103.5
 170   16:20  104.7     9    4.9   242     11.9   938.3    0.00     346    103.7
 170   16:30  105.4     9    4.2   206     10.9   937.9    0.00     319    103.7
 170   16:40  105.3     9    3.2   209      8.6   937.8    0.00     292    103.7
 170   16:50  105.5     9    4.7   196     13.0   937.5    0.00     266    103.8
 170   17:00  105.0     9    4.4   226     10.2   937.5    0.00     240    103.8
 170   17:10  105.2     9    2.5   205      7.7   937.5    0.00     215    103.8
 170   17:20  105.5     9    4.3   216     11.4   937.0    0.00     190    103.7
 170   17:30  104.8     9    4.7   217     13.0   935.9    0.00     165    103.7
 170   17:40  104.5     9    4.8   212     11.5   934.8    0.00     140    103.7
 170   17:50  104.1     9    5.8   201     14.6   934.6    0.00     118    103.6
 170   18:00  103.9     9    4.6   200     12.6   934.7    0.00      97    103.5
 170   18:10  103.1     9    5.8   197     15.3   935.9    0.00      74    103.3
 170   18:20  102.7     9    3.5   205      9.2   938.5    0.00      51    103.2
 170   18:30  101.9    10    4.4   203     14.0   938.9    0.00      32    103.0
 170   18:40  101.0    10    3.9   200     10.2   939.0    0.00      18    102.9
 170   18:50   99.8    10    3.5   217     10.5   939.1    0.00       9    102.7
 170   19:00   99.1    10    3.3   219     10.0   939.1    0.00       4    102.5
 170   19:10   98.7    10    6.0   241     12.0   939.1    0.00       3    102.3
 170   19:20   98.2    10    6.5   238     11.1   939.2    0.00       2    102.1
 170   19:30   97.5    10    5.2   244      9.9   939.3    0.00       0    101.9
 170   19:40   97.0    10    6.5   246     12.6   939.3    0.00       0    101.6
 170   19:50   97.0    10    6.3   250     12.6   939.4    0.00       0    101.4
 170   20:00   96.7    10    6.1   249     11.7   939.4    0.00       1    101.2
 170   20:10   96.4    10    5.2   250     10.7   939.5    0.00       1    101.0
 170   20:20   96.3    10    4.9   273      8.0   939.5    0.00       1    100.8
 170   20:30   96.5    10    4.5   281      9.7   939.6    0.00       1    100.6
 170   20:40   96.0    11    5.4   295     10.2   939.6    0.00       1    100.4
 170   20:50   95.9    11    5.6   320     10.6   939.7    0.00       1    100.1
 170   21:00   95.6    10    2.9   345      8.1   939.8    0.00       0    100.0
 170   21:10   95.2    11    4.5   355      7.8   939.9    0.00       0    99.8
 170   21:20   93.7    11    4.1     4      7.7   939.9    0.00       0    99.6
 170   21:30   93.9    11    4.7   357      7.1   939.9    0.00       1    99.4
 170   21:40   93.1    11    5.0    30     11.8   940.0    0.00       1    99.2
 170   21:50   94.9    10    3.5   166     10.2   940.1    0.00       1    99.0
 170   22:00   94.6    10    4.0   174     16.7   940.1    0.00       1    98.8
 170   22:10   95.1    10    3.7   174      9.8   940.0    0.00       1    98.6
 170   22:20   93.8    10    1.5   162      7.6   940.1    0.00       1    98.5
 170   22:30   93.7    10    6.3   149     13.2   940.1    0.00       1    98.3
 170   22:40   93.1    10    8.4   153     17.5   940.1    0.00       1    98.1
 170   22:50   93.8    10    4.3   165     11.5   940.2    0.00       1    97.9
 170   23:00   93.4    10    4.8   164     10.5   940.2    0.00       1    97.8
 170   23:10   92.8    10    1.8   216      6.2   940.2    0.00       1    97.7
 170   23:20   91.8    10    1.2   355      3.6   940.3    0.00       1    97.5
 170   23:30   91.3    10    1.2   312      3.9   940.3    0.00       1    97.4
 170   23:40   91.2    10    3.3    86     11.5   940.3    0.00       1    97.2
 170   23:50   91.3    10    2.5   145      8.7   940.3    0.00       1    97.1
 171    0:00   90.4    10    1.6    98      4.3   940.4    0.00       1    96.9
 171    0:10   88.9    11    1.6   130      7.0   940.4    0.00       1    96.8
 171    0:20   89.3    10    0.9   108      4.2   940.4    0.00       1    96.7
 171    0:30   89.1    10    2.6   158     10.8   940.4    0.00       1    96.5
 171    0:40   90.6    10    4.3   127     10.2   940.4    0.00       1    96.4
 171    0:50   89.2    10    2.6   134      6.7   940.3    0.00       0    96.2
 171    1:00   89.1    10    4.3   122      7.5   940.4    0.00       1    96.1
 171    1:10   88.8    10    3.9   127      9.3   940.4    0.00       0    95.9
 171    1:20   88.7    10    5.9   122     11.7   940.4    0.00       1    95.8
 171    1:30   88.8    10    4.6   132     11.1   940.4    0.00       1    95.6
 171    1:40   88.9    10    4.2   122      7.7   940.4    0.00       1    95.5
 171    1:50   87.7    11    2.9   121      9.2   940.4    0.00       1    95.4
 171    2:00   88.8    10    2.8   191      6.8   940.4    0.00       0    95.2
 171    2:10   89.2    10    1.9   178      5.2   940.3    0.00       1    95.1
 171    2:20   88.8    10    1.2   195      4.2   940.4    0.00       1    95.0
 171    2:30   88.2    11    1.4   280      4.5   940.4    0.00       1    94.9
 171    2:40   87.6    11    0.5   312      3.0   940.5    0.00       1    94.7
 171    2:50   87.2    11    1.5   163      6.4   940.6    0.00       1    94.6
 171    3:00   88.0    11    2.4   157      6.9   940.6    0.00       1    94.5
 171    3:10   89.1    11    3.0   131      5.4   940.6    0.00       1    94.4
 171    3:20   86.4    12    1.3    33      4.4   940.6    0.00       1    94.3
 171    3:30   84.6    13    0.9   314      3.6   940.7    0.00       1    94.2
 171    3:40   82.7    14    3.1    30      4.8   940.7    0.00       1    94.0
 171    3:50   81.8    14    2.4    38      5.9   940.8    0.00       1    93.9
 171    4:00   81.8    14    2.0   343      3.0   940.8    0.00       1    93.8
 171    4:10   81.5    14    3.5    15      5.6   940.9    0.00       3    93.7
 171    4:20   80.9    15    1.9   352      3.6   941.0    0.00       3    93.6
 171    4:30   80.7    16    3.6   326      7.2   941.1    0.00       7    93.4
 171    4:40   83.2    14    4.8   356      7.4   941.2    0.00      14    93.3
 171    4:50   82.8    14    3.8    20      6.9   941.2    0.00      26    93.2
 171    5:00   84.0    14    2.6     5      5.6   941.2    0.00      45    93.1
 171    5:10   82.7    15    1.4    63      4.1   941.3    0.00      68    92.9
 171    5:20   81.6    15    2.2    75      5.0   941.3    0.00      91    92.8
 171    5:30   82.9    16    1.7   296      5.5   941.4    0.00     113    92.7

Return to Mesquite, Nevada graphs page.


Western Regional Climate Center,wrcc@dri.edu